sensor_id;sensor_type;location;lat;lon;timestamp;temperature;humidity
4509;DHT22;2267;48.816;9.230;2022-09-20T00:03:29;12.70;99.90
4509;DHT22;2267;48.816;9.230;2022-09-20T00:05:59;12.70;99.90
4509;DHT22;2267;48.816;9.230;2022-09-20T00:08:27;12.70;99.90
4509;DHT22;2267;48.816;9.230;2022-09-20T00:11:04;12.70;99.90
4509;DHT22;2267;48.816;9.230;2022-09-20T00:13:32;12.70;99.90
4509;DHT22;2267;48.816;9.230;2022-09-20T00:16:03;12.70;99.90
4509;DHT22;2267;48.816;9.230;2022-09-20T00:18:30;12.70;99.90
4509;DHT22;2267;48.816;9.230;2022-09-20T00:20:56;12.70;99.90
4509;DHT22;2267;48.816;9.230;2022-09-20T00:23:23;12.70;99.90
4509;DHT22;2267;48.816;9.230;2022-09-20T00:25:57;12.60;99.90
4509;DHT22;2267;48.816;9.230;2022-09-20T00:28:25;12.60;99.90
4509;DHT22;2267;48.816;9.230;2022-09-20T00:30:53;12.60;99.90
4509;DHT22;2267;48.816;9.230;2022-09-20T00:33:22;12.60;99.90
4509;DHT22;2267;48.816;9.230;2022-09-20T00:35:50;12.60;99.90
4509;DHT22;2267;48.816;9.230;2022-09-20T00:38:17;12.60;99.90
4509;DHT22;2267;48.816;9.230;2022-09-20T00:40:43;12.60;99.90
4509;DHT22;2267;48.816;9.230;2022-09-20T00:43:17;12.60;99.90
4509;DHT22;2267;48.816;9.230;2022-09-20T00:45:45;12.60;99.90
4509;DHT22;2267;48.816;9.230;2022-09-20T00:48:19;12.60;99.90
4509;DHT22;2267;48.816;9.230;2022-09-20T00:50:52;12.50;99.90
4509;DHT22;2267;48.816;9.230;2022-09-20T00:53:30;12.50;99.90
4509;DHT22;2267;48.816;9.230;2022-09-20T00:58:31;12.50;99.90
4509;DHT22;2267;48.816;9.230;2022-09-20T01:00:58;12.50;99.90
4509;DHT22;2267;48.816;9.230;2022-09-20T01:03:28;12.50;99.90
4509;DHT22;2267;48.816;9.230;2022-09-20T01:05:58;12.60;99.90
4509;DHT22;2267;48.816;9.230;2022-09-20T01:08:27;12.60;99.90
4509;DHT22;2267;48.816;9.230;2022-09-20T01:10:53;12.60;99.90
4509;DHT22;2267;48.816;9.230;2022-09-20T01:13:20;12.60;99.90
4509;DHT22;2267;48.816;9.230;2022-09-20T01:15:48;12.50;99.90
4509;DHT22;2267;48.816;9.230;2022-09-20T01:18:17;12.50;99.90
4509;DHT22;2267;48.816;9.230;2022-09-20T01:20:46;12.50;99.90
4509;DHT22;2267;48.816;9.230;2022-09-20T01:28:28;12.60;99.90
4509;DHT22;2267;48.816;9.230;2022-09-20T01:31:21;12.50;99.90
4509;DHT22;2267;48.816;9.230;2022-09-20T01:34:07;12.50;99.90
4509;DHT22;2267;48.816;9.230;2022-09-20T01:36:43;12.50;99.90
4509;DHT22;2267;48.816;9.230;2022-09-20T01:42:10;12.50;99.90
4509;DHT22;2267;48.816;9.230;2022-09-20T01:47:50;12.50;99.90
4509;DHT22;2267;48.816;9.230;2022-09-20T01:50:31;12.50;99.90
4509;DHT22;2267;48.816;9.230;2022-09-20T01:55:50;12.50;99.90
4509;DHT22;2267;48.816;9.230;2022-09-20T02:15:07;12.50;99.90
4509;DHT22;2267;48.816;9.230;2022-09-20T02:23:39;12.50;99.90
4509;DHT22;2267;48.816;9.230;2022-09-20T02:29:11;12.50;99.90
4509;DHT22;2267;48.816;9.230;2022-09-20T02:31:59;12.40;99.90
4509;DHT22;2267;48.816;9.230;2022-09-20T02:40:37;12.40;99.90
4509;DHT22;2267;48.816;9.230;2022-09-20T02:46:08;12.40;99.90
4509;DHT22;2267;48.816;9.230;2022-09-20T02:49:09;12.40;99.90
4509;DHT22;2267;48.816;9.230;2022-09-20T02:51:55;12.40;99.90
4509;DHT22;2267;48.816;9.230;2022-09-20T02:55:10;12.40;99.90
4509;DHT22;2267;48.816;9.230;2022-09-20T03:00:39;12.40;99.90
4509;DHT22;2267;48.816;9.230;2022-09-20T03:05:59;12.40;99.90
4509;DHT22;2267;48.816;9.230;2022-09-20T03:17:47;12.40;99.90
4509;DHT22;2267;48.816;9.230;2022-09-20T03:23:04;12.40;99.90
4509;DHT22;2267;48.816;9.230;2022-09-20T03:26:02;12.40;99.90
4509;DHT22;2267;48.816;9.230;2022-09-20T03:31:34;12.30;99.90
4509;DHT22;2267;48.816;9.230;2022-09-20T03:34:22;12.30;99.90
4509;DHT22;2267;48.816;9.230;2022-09-20T03:42:28;12.30;99.90
4509;DHT22;2267;48.816;9.230;2022-09-20T04:04:47;12.30;99.90
4509;DHT22;2267;48.816;9.230;2022-09-20T04:13:29;12.30;99.90
4509;DHT22;2267;48.816;9.230;2022-09-20T04:19:03;12.30;99.90
4509;DHT22;2267;48.816;9.230;2022-09-20T04:21:52;12.30;99.90
4509;DHT22;2267;48.816;9.230;2022-09-20T04:24:41;12.30;99.90
4509;DHT22;2267;48.816;9.230;2022-09-20T04:27:17;12.30;99.90
4509;DHT22;2267;48.816;9.230;2022-09-20T04:30:02;12.30;99.90
4509;DHT22;2267;48.816;9.230;2022-09-20T04:32:46;12.30;99.90
4509;DHT22;2267;48.816;9.230;2022-09-20T04:38:02;12.30;99.90
4509;DHT22;2267;48.816;9.230;2022-09-20T05:01:18;12.30;99.90
4509;DHT22;2267;48.816;9.230;2022-09-20T05:03:44;12.30;99.90
4509;DHT22;2267;48.816;9.230;2022-09-20T05:09:45;12.30;99.90
4509;DHT22;2267;48.816;9.230;2022-09-20T05:12:40;12.30;99.90
4509;DHT22;2267;48.816;9.230;2022-09-20T05:43:08;12.10;99.90
4509;DHT22;2267;48.816;9.230;2022-09-20T05:45:51;12.10;99.90
4509;DHT22;2267;48.816;9.230;2022-09-20T06:04:38;12.00;99.90
4509;DHT22;2267;48.816;9.230;2022-09-20T06:07:31;12.00;99.90
4509;DHT22;2267;48.816;9.230;2022-09-20T06:15:46;12.00;99.90
4509;DHT22;2267;48.816;9.230;2022-09-20T06:18:23;12.00;99.90
4509;DHT22;2267;48.816;9.230;2022-09-20T06:21:04;12.00;99.90
4509;DHT22;2267;48.816;9.230;2022-09-20T06:23:35;12.00;99.90
4509;DHT22;2267;48.816;9.230;2022-09-20T06:26:15;12.10;99.90
4509;DHT22;2267;48.816;9.230;2022-09-20T06:28:50;12.10;99.90
4509;DHT22;2267;48.816;9.230;2022-09-20T06:31:23;12.10;99.90
4509;DHT22;2267;48.816;9.230;2022-09-20T06:36:32;12.10;99.90
4509;DHT22;2267;48.816;9.230;2022-09-20T06:39:50;12.10;99.90
4509;DHT22;2267;48.816;9.230;2022-09-20T06:42:37;12.20;99.90
4509;DHT22;2267;48.816;9.230;2022-09-20T06:45:04;12.20;99.90
4509;DHT22;2267;48.816;9.230;2022-09-20T06:47:31;12.30;99.90
4509;DHT22;2267;48.816;9.230;2022-09-20T06:50:04;12.30;99.90
4509;DHT22;2267;48.816;9.230;2022-09-20T06:52:31;12.30;99.90
4509;DHT22;2267;48.816;9.230;2022-09-20T06:55:00;12.30;99.90
4509;DHT22;2267;48.816;9.230;2022-09-20T06:57:34;12.40;99.90
4509;DHT22;2267;48.816;9.230;2022-09-20T07:00:01;12.40;99.90
4509;DHT22;2267;48.816;9.230;2022-09-20T07:02:28;12.40;99.90
4509;DHT22;2267;48.816;9.230;2022-09-20T07:04:55;12.40;99.90
4509;DHT22;2267;48.816;9.230;2022-09-20T07:07:24;12.50;99.90
4509;DHT22;2267;48.816;9.230;2022-09-20T07:09:51;12.50;99.90
4509;DHT22;2267;48.816;9.230;2022-09-20T07:12:18;12.50;99.90
4509;DHT22;2267;48.816;9.230;2022-09-20T07:14:45;12.50;99.90
4509;DHT22;2267;48.816;9.230;2022-09-20T07:17:11;12.50;99.90
4509;DHT22;2267;48.816;9.230;2022-09-20T07:19:40;12.50;99.90
4509;DHT22;2267;48.816;9.230;2022-09-20T07:22:06;12.50;99.90
4509;DHT22;2267;48.816;9.230;2022-09-20T07:24:33;12.50;99.90
4509;DHT22;2267;48.816;9.230;2022-09-20T07:27:02;12.60;99.90
4509;DHT22;2267;48.816;9.230;2022-09-20T07:29:30;12.60;99.90
4509;DHT22;2267;48.816;9.230;2022-09-20T07:31:57;12.60;99.90
4509;DHT22;2267;48.816;9.230;2022-09-20T07:34:24;12.70;99.90
4509;DHT22;2267;48.816;9.230;2022-09-20T07:36:52;12.70;99.90
4509;DHT22;2267;48.816;9.230;2022-09-20T07:39:19;12.70;99.90
4509;DHT22;2267;48.816;9.230;2022-09-20T07:41:46;12.70;99.90
4509;DHT22;2267;48.816;9.230;2022-09-20T07:44:16;12.70;99.90
4509;DHT22;2267;48.816;9.230;2022-09-20T07:46:55;12.70;99.90
4509;DHT22;2267;48.816;9.230;2022-09-20T07:49:24;12.80;99.90
4509;DHT22;2267;48.816;9.230;2022-09-20T07:51:52;12.80;99.90
4509;DHT22;2267;48.816;9.230;2022-09-20T07:54:19;12.90;99.90
4509;DHT22;2267;48.816;9.230;2022-09-20T07:56:46;12.90;99.90
4509;DHT22;2267;48.816;9.230;2022-09-20T07:59:13;12.90;99.90
4509;DHT22;2267;48.816;9.230;2022-09-20T08:01:41;13.00;99.90
4509;DHT22;2267;48.816;9.230;2022-09-20T08:04:08;13.00;99.90
4509;DHT22;2267;48.816;9.230;2022-09-20T08:06:37;13.00;99.90
4509;DHT22;2267;48.816;9.230;2022-09-20T08:09:05;13.10;99.90
4509;DHT22;2267;48.816;9.230;2022-09-20T08:11:37;13.20;99.90
4509;DHT22;2267;48.816;9.230;2022-09-20T08:14:05;13.20;99.90
4509;DHT22;2267;48.816;9.230;2022-09-20T08:16:44;13.20;99.90
4509;DHT22;2267;48.816;9.230;2022-09-20T08:21:42;13.30;99.90
4509;DHT22;2267;48.816;9.230;2022-09-20T08:24:10;13.30;99.90
4509;DHT22;2267;48.816;9.230;2022-09-20T08:26:37;13.30;99.90
4509;DHT22;2267;48.816;9.230;2022-09-20T08:29:04;13.40;99.90
4509;DHT22;2267;48.816;9.230;2022-09-20T08:31:36;13.40;99.90
4509;DHT22;2267;48.816;9.230;2022-09-20T08:34:05;13.40;99.90
4509;DHT22;2267;48.816;9.230;2022-09-20T08:36:35;13.40;99.90
4509;DHT22;2267;48.816;9.230;2022-09-20T08:39:03;13.40;99.90
4509;DHT22;2267;48.816;9.230;2022-09-20T08:41:54;13.40;99.90
4509;DHT22;2267;48.816;9.230;2022-09-20T08:44:49;13.40;99.90
4509;DHT22;2267;48.816;9.230;2022-09-20T08:47:34;13.50;99.90
4509;DHT22;2267;48.816;9.230;2022-09-20T08:50:04;13.60;99.90
4509;DHT22;2267;48.816;9.230;2022-09-20T08:52:36;13.70;99.90
4509;DHT22;2267;48.816;9.230;2022-09-20T08:55:17;13.80;99.90
4509;DHT22;2267;48.816;9.230;2022-09-20T08:57:53;13.90;99.90
4509;DHT22;2267;48.816;9.230;2022-09-20T09:00:27;13.90;99.80
4509;DHT22;2267;48.816;9.230;2022-09-20T09:02:58;13.90;99.80
4509;DHT22;2267;48.816;9.230;2022-09-20T09:08:42;13.90;99.20
4509;DHT22;2267;48.816;9.230;2022-09-20T09:11:13;13.90;99.00
4509;DHT22;2267;48.816;9.230;2022-09-20T09:13:58;14.00;98.60
4509;DHT22;2267;48.816;9.230;2022-09-20T09:16:28;14.00;98.20
4509;DHT22;2267;48.816;9.230;2022-09-20T09:22:01;14.00;97.40
4509;DHT22;2267;48.816;9.230;2022-09-20T09:24:29;13.90;97.20
4509;DHT22;2267;48.816;9.230;2022-09-20T09:27:17;13.90;97.10
4509;DHT22;2267;48.816;9.230;2022-09-20T09:29:49;13.90;96.90
4509;DHT22;2267;48.816;9.230;2022-09-20T09:32:26;13.80;97.00
4509;DHT22;2267;48.816;9.230;2022-09-20T09:34:55;13.90;97.10
4509;DHT22;2267;48.816;9.230;2022-09-20T09:37:26;13.90;97.20
4509;DHT22;2267;48.816;9.230;2022-09-20T09:40:21;13.90;97.00
4509;DHT22;2267;48.816;9.230;2022-09-20T09:42:49;13.90;97.00
4509;DHT22;2267;48.816;9.230;2022-09-20T09:45:42;14.00;97.40
4509;DHT22;2267;48.816;9.230;2022-09-20T09:48:23;14.00;97.30
4509;DHT22;2267;48.816;9.230;2022-09-20T09:51:11;14.00;97.40
4509;DHT22;2267;48.816;9.230;2022-09-20T09:53:38;14.10;97.10
4509;DHT22;2267;48.816;9.230;2022-09-20T09:59:14;14.10;96.90
4509;DHT22;2267;48.816;9.230;2022-09-20T10:10:03;14.40;96.30
4509;DHT22;2267;48.816;9.230;2022-09-20T10:29:57;15.00;93.60
4509;DHT22;2267;48.816;9.230;2022-09-20T10:47:22;14.70;93.50
4509;DHT22;2267;48.816;9.230;2022-09-20T10:56:27;14.80;93.70
4509;DHT22;2267;48.816;9.230;2022-09-20T11:02:08;15.40;93.50
4509;DHT22;2267;48.816;9.230;2022-09-20T11:15:43;16.00;91.50
4509;DHT22;2267;48.816;9.230;2022-09-20T11:18:20;16.00;91.60
4509;DHT22;2267;48.816;9.230;2022-09-20T11:21:06;16.00;91.30
4509;DHT22;2267;48.816;9.230;2022-09-20T11:26:18;15.90;91.40
4509;DHT22;2267;48.816;9.230;2022-09-20T11:28:53;15.90;91.30
4509;DHT22;2267;48.816;9.230;2022-09-20T11:31:25;16.10;91.00
4509;DHT22;2267;48.816;9.230;2022-09-20T11:34:00;16.50;91.20
4509;DHT22;2267;48.816;9.230;2022-09-20T11:42:02;17.60;88.90
4509;DHT22;2267;48.816;9.230;2022-09-20T11:44:30;17.80;88.80
4509;DHT22;2267;48.816;9.230;2022-09-20T11:47:01;18.10;87.30
4509;DHT22;2267;48.816;9.230;2022-09-20T11:49:31;18.40;85.00
4509;DHT22;2267;48.816;9.230;2022-09-20T11:57:37;19.00;79.00
4509;DHT22;2267;48.816;9.230;2022-09-20T12:00:05;19.30;78.50
4509;DHT22;2267;48.816;9.230;2022-09-20T12:02:50;19.40;77.10
4509;DHT22;2267;48.816;9.230;2022-09-20T12:05:44;19.60;76.20
4509;DHT22;2267;48.816;9.230;2022-09-20T12:08:23;19.80;77.50
4509;DHT22;2267;48.816;9.230;2022-09-20T12:11:09;19.90;76.80
4509;DHT22;2267;48.816;9.230;2022-09-20T12:13:41;20.00;75.50
4509;DHT22;2267;48.816;9.230;2022-09-20T12:16:34;20.10;75.80
4509;DHT22;2267;48.816;9.230;2022-09-20T12:19:04;20.30;76.90
4509;DHT22;2267;48.816;9.230;2022-09-20T12:24:29;20.70;74.80
4509;DHT22;2267;48.816;9.230;2022-09-20T12:27:22;20.80;72.60
4509;DHT22;2267;48.816;9.230;2022-09-20T12:30:20;20.90;71.70
4509;DHT22;2267;48.816;9.230;2022-09-20T12:32:54;21.00;69.70
4509;DHT22;2267;48.816;9.230;2022-09-20T12:41:04;21.30;69.90
4509;DHT22;2267;48.816;9.230;2022-09-20T12:43:36;21.40;68.20
4509;DHT22;2267;48.816;9.230;2022-09-20T12:46:04;21.40;67.10
4509;DHT22;2267;48.816;9.230;2022-09-20T12:48:37;21.50;67.20
4509;DHT22;2267;48.816;9.230;2022-09-20T12:51:29;21.40;64.40
4509;DHT22;2267;48.816;9.230;2022-09-20T12:54:16;21.30;65.20
4509;DHT22;2267;48.816;9.230;2022-09-20T12:56:43;21.20;63.00
4509;DHT22;2267;48.816;9.230;2022-09-20T12:59:23;21.00;63.70
4509;DHT22;2267;48.816;9.230;2022-09-20T13:01:52;20.90;62.00
4509;DHT22;2267;48.816;9.230;2022-09-20T13:07:35;21.00;64.10
4509;DHT22;2267;48.816;9.230;2022-09-20T13:10:21;21.10;64.50
4509;DHT22;2267;48.816;9.230;2022-09-20T13:12:53;21.30;64.40
4509;DHT22;2267;48.816;9.230;2022-09-20T13:15:21;21.40;64.40
4509;DHT22;2267;48.816;9.230;2022-09-20T13:17:52;21.30;63.50
4509;DHT22;2267;48.816;9.230;2022-09-20T13:20:23;21.20;64.50
4509;DHT22;2267;48.816;9.230;2022-09-20T13:22:52;21.20;62.90
4509;DHT22;2267;48.816;9.230;2022-09-20T13:25:25;21.00;63.90
4509;DHT22;2267;48.816;9.230;2022-09-20T13:28:06;20.80;64.00
4509;DHT22;2267;48.816;9.230;2022-09-20T13:30:33;20.50;64.40
4509;DHT22;2267;48.816;9.230;2022-09-20T13:33:23;20.60;64.60
4509;DHT22;2267;48.816;9.230;2022-09-20T13:35:55;20.60;65.00
4509;DHT22;2267;48.816;9.230;2022-09-20T13:38:27;20.40;67.10
4509;DHT22;2267;48.816;9.230;2022-09-20T13:41:07;20.30;68.30
4509;DHT22;2267;48.816;9.230;2022-09-20T13:46:11;19.80;70.00
4509;DHT22;2267;48.816;9.230;2022-09-20T13:48:39;19.50;70.20
4509;DHT22;2267;48.816;9.230;2022-09-20T13:51:24;19.30;72.50
4509;DHT22;2267;48.816;9.230;2022-09-20T13:53:51;19.10;71.90
4509;DHT22;2267;48.816;9.230;2022-09-20T13:58:47;18.70;72.00
4509;DHT22;2267;48.816;9.230;2022-09-20T14:01:30;18.60;73.00
4509;DHT22;2267;48.816;9.230;2022-09-20T14:04:04;18.50;73.50
4509;DHT22;2267;48.816;9.230;2022-09-20T14:06:33;18.30;73.50
4509;DHT22;2267;48.816;9.230;2022-09-20T14:09:02;18.20;73.60
4509;DHT22;2267;48.816;9.230;2022-09-20T14:11:36;18.10;73.70
4509;DHT22;2267;48.816;9.230;2022-09-20T14:14:04;18.00;74.50
4509;DHT22;2267;48.816;9.230;2022-09-20T14:16:43;17.80;75.30
4509;DHT22;2267;48.816;9.230;2022-09-20T14:19:17;17.70;75.80
4509;DHT22;2267;48.816;9.230;2022-09-20T14:21:46;17.60;76.20
4509;DHT22;2267;48.816;9.230;2022-09-20T14:26:42;17.30;75.60
4509;DHT22;2267;48.816;9.230;2022-09-20T14:29:38;17.20;75.20
4509;DHT22;2267;48.816;9.230;2022-09-20T14:32:22;17.10;75.30
4509;DHT22;2267;48.816;9.230;2022-09-20T14:35:17;17.00;76.00
4509;DHT22;2267;48.816;9.230;2022-09-20T14:37:49;16.90;75.80
4509;DHT22;2267;48.816;9.230;2022-09-20T14:40:28;16.80;76.00
4509;DHT22;2267;48.816;9.230;2022-09-20T14:43:03;16.80;75.10
4509;DHT22;2267;48.816;9.230;2022-09-20T14:45:38;16.70;74.80
4509;DHT22;2267;48.816;9.230;2022-09-20T14:51:18;16.60;76.70
4509;DHT22;2267;48.816;9.230;2022-09-20T14:56:40;16.60;77.00
4509;DHT22;2267;48.816;9.230;2022-09-20T14:59:19;16.60;77.60
4509;DHT22;2267;48.816;9.230;2022-09-20T15:04:35;16.70;76.90
4509;DHT22;2267;48.816;9.230;2022-09-20T15:07:05;16.70;76.60
4509;DHT22;2267;48.816;9.230;2022-09-20T15:09:32;16.70;77.10
4509;DHT22;2267;48.816;9.230;2022-09-20T15:14:36;16.70;76.80
4509;DHT22;2267;48.816;9.230;2022-09-20T15:17:04;16.80;77.00
4509;DHT22;2267;48.816;9.230;2022-09-20T15:19:30;16.80;76.90
4509;DHT22;2267;48.816;9.230;2022-09-20T15:21:58;16.90;76.70
4509;DHT22;2267;48.816;9.230;2022-09-20T15:24:25;16.90;76.80
4509;DHT22;2267;48.816;9.230;2022-09-20T15:26:52;16.90;77.30
4509;DHT22;2267;48.816;9.230;2022-09-20T15:29:19;16.90;77.90
4509;DHT22;2267;48.816;9.230;2022-09-20T15:31:47;17.00;78.50
4509;DHT22;2267;48.816;9.230;2022-09-20T15:34:14;17.00;78.20
4509;DHT22;2267;48.816;9.230;2022-09-20T15:36:41;17.00;75.60
4509;DHT22;2267;48.816;9.230;2022-09-20T15:39:08;17.00;75.20
4509;DHT22;2267;48.816;9.230;2022-09-20T15:41:36;17.00;75.40
4509;DHT22;2267;48.816;9.230;2022-09-20T15:44:03;17.00;76.00
4509;DHT22;2267;48.816;9.230;2022-09-20T15:46:30;17.00;75.40
4509;DHT22;2267;48.816;9.230;2022-09-20T15:48:59;16.90;75.70
4509;DHT22;2267;48.816;9.230;2022-09-20T15:51:26;16.90;76.40
4509;DHT22;2267;48.816;9.230;2022-09-20T15:53:58;16.90;76.20
4509;DHT22;2267;48.816;9.230;2022-09-20T15:56:27;16.80;75.70
4509;DHT22;2267;48.816;9.230;2022-09-20T15:58:56;16.80;76.30
4509;DHT22;2267;48.816;9.230;2022-09-20T16:01:37;16.70;77.00
4509;DHT22;2267;48.816;9.230;2022-09-20T16:04:09;16.70;75.30
4509;DHT22;2267;48.816;9.230;2022-09-20T16:06:39;16.60;75.00
4509;DHT22;2267;48.816;9.230;2022-09-20T16:09:07;16.60;75.00
4509;DHT22;2267;48.816;9.230;2022-09-20T16:11:34;16.60;75.10
4509;DHT22;2267;48.816;9.230;2022-09-20T16:14:02;16.50;74.30
4509;DHT22;2267;48.816;9.230;2022-09-20T16:16:30;16.50;74.40
4509;DHT22;2267;48.816;9.230;2022-09-20T16:19:04;16.50;75.00
4509;DHT22;2267;48.816;9.230;2022-09-20T16:21:50;16.40;75.30
4509;DHT22;2267;48.816;9.230;2022-09-20T16:24:26;16.40;75.80
4509;DHT22;2267;48.816;9.230;2022-09-20T16:26:53;16.40;76.70
4509;DHT22;2267;48.816;9.230;2022-09-20T16:29:20;16.40;76.80
4509;DHT22;2267;48.816;9.230;2022-09-20T16:31:52;16.30;77.30
4509;DHT22;2267;48.816;9.230;2022-09-20T16:36:49;16.30;77.80
4509;DHT22;2267;48.816;9.230;2022-09-20T16:39:17;16.30;77.50
4509;DHT22;2267;48.816;9.230;2022-09-20T16:41:47;16.20;77.30
4509;DHT22;2267;48.816;9.230;2022-09-20T16:44:14;16.20;77.70
4509;DHT22;2267;48.816;9.230;2022-09-20T16:46:41;16.20;78.30
4509;DHT22;2267;48.816;9.230;2022-09-20T16:49:10;16.20;78.30
4509;DHT22;2267;48.816;9.230;2022-09-20T16:51:40;16.20;78.40
4509;DHT22;2267;48.816;9.230;2022-09-20T16:54:09;16.20;78.80
4509;DHT22;2267;48.816;9.230;2022-09-20T16:56:42;16.10;79.40
4509;DHT22;2267;48.816;9.230;2022-09-20T16:59:11;16.10;80.30
4509;DHT22;2267;48.816;9.230;2022-09-20T17:01:39;16.10;80.20
4509;DHT22;2267;48.816;9.230;2022-09-20T17:04:07;16.10;80.70
4509;DHT22;2267;48.816;9.230;2022-09-20T17:06:35;16.00;81.00
4509;DHT22;2267;48.816;9.230;2022-09-20T17:09:04;16.00;81.40
4509;DHT22;2267;48.816;9.230;2022-09-20T17:11:34;16.00;82.50
4509;DHT22;2267;48.816;9.230;2022-09-20T17:14:01;16.00;83.30
4509;DHT22;2267;48.816;9.230;2022-09-20T17:16:31;15.90;83.80
4509;DHT22;2267;48.816;9.230;2022-09-20T17:19:01;15.90;84.30
4509;DHT22;2267;48.816;9.230;2022-09-20T17:21:29;15.90;85.00
4509;DHT22;2267;48.816;9.230;2022-09-20T17:23:57;15.80;85.30
4509;DHT22;2267;48.816;9.230;2022-09-20T17:28:53;15.80;86.10
4509;DHT22;2267;48.816;9.230;2022-09-20T17:31:24;15.80;86.50
4509;DHT22;2267;48.816;9.230;2022-09-20T17:33:55;15.70;87.00
4509;DHT22;2267;48.816;9.230;2022-09-20T17:36:31;15.70;87.40
4509;DHT22;2267;48.816;9.230;2022-09-20T17:38:59;15.60;87.70
4509;DHT22;2267;48.816;9.230;2022-09-20T17:41:30;15.60;88.20
4509;DHT22;2267;48.816;9.230;2022-09-20T17:43:59;15.50;88.80
4509;DHT22;2267;48.816;9.230;2022-09-20T17:46:29;15.50;89.40
4509;DHT22;2267;48.816;9.230;2022-09-20T17:48:59;15.40;90.00
4509;DHT22;2267;48.816;9.230;2022-09-20T17:51:29;15.40;90.20
4509;DHT22;2267;48.816;9.230;2022-09-20T17:53:57;15.40;90.60
4509;DHT22;2267;48.816;9.230;2022-09-20T17:56:25;15.40;90.70
4509;DHT22;2267;48.816;9.230;2022-09-20T17:58:57;15.30;90.90
4509;DHT22;2267;48.816;9.230;2022-09-20T18:01:25;15.30;91.20
4509;DHT22;2267;48.816;9.230;2022-09-20T18:03:54;15.20;91.50
4509;DHT22;2267;48.816;9.230;2022-09-20T18:06:26;15.20;91.70
4509;DHT22;2267;48.816;9.230;2022-09-20T18:08:59;15.20;91.70
4509;DHT22;2267;48.816;9.230;2022-09-20T18:11:30;15.10;91.70
4509;DHT22;2267;48.816;9.230;2022-09-20T18:13:58;15.10;91.80
4509;DHT22;2267;48.816;9.230;2022-09-20T18:16:26;15.00;91.80
4509;DHT22;2267;48.816;9.230;2022-09-20T18:18:53;15.10;91.90
4509;DHT22;2267;48.816;9.230;2022-09-20T18:21:24;15.00;92.00
4509;DHT22;2267;48.816;9.230;2022-09-20T18:23:52;15.00;92.20
4509;DHT22;2267;48.816;9.230;2022-09-20T18:26:21;14.90;92.30
4509;DHT22;2267;48.816;9.230;2022-09-20T18:29:07;14.90;92.50
4509;DHT22;2267;48.816;9.230;2022-09-20T18:34:23;14.80;92.60
4509;DHT22;2267;48.816;9.230;2022-09-20T18:36:53;14.80;92.90
4509;DHT22;2267;48.816;9.230;2022-09-20T18:39:24;14.80;93.30
4509;DHT22;2267;48.816;9.230;2022-09-20T18:41:51;14.80;93.30
4509;DHT22;2267;48.816;9.230;2022-09-20T18:44:19;14.70;93.50
4509;DHT22;2267;48.816;9.230;2022-09-20T18:46:47;14.70;93.60
4509;DHT22;2267;48.816;9.230;2022-09-20T18:49:14;14.70;93.90
4509;DHT22;2267;48.816;9.230;2022-09-20T18:51:43;14.60;94.10
4509;DHT22;2267;48.816;9.230;2022-09-20T18:54:10;14.60;94.30
4509;DHT22;2267;48.816;9.230;2022-09-20T18:56:39;14.60;94.50
4509;DHT22;2267;48.816;9.230;2022-09-20T18:59:13;14.50;94.60
4509;DHT22;2267;48.816;9.230;2022-09-20T19:09:48;14.40;94.70
4509;DHT22;2267;48.816;9.230;2022-09-20T19:12:22;14.40;94.90
4509;DHT22;2267;48.816;9.230;2022-09-20T19:20:32;14.30;95.00
4509;DHT22;2267;48.816;9.230;2022-09-20T19:23:08;14.20;94.90
4509;DHT22;2267;48.816;9.230;2022-09-20T19:25:41;14.20;94.90
4509;DHT22;2267;48.816;9.230;2022-09-20T19:28:12;14.20;95.20
4509;DHT22;2267;48.816;9.230;2022-09-20T19:30:40;14.20;95.60
4509;DHT22;2267;48.816;9.230;2022-09-20T19:33:16;14.10;95.70
4509;DHT22;2267;48.816;9.230;2022-09-20T19:35:47;14.10;95.80
4509;DHT22;2267;48.816;9.230;2022-09-20T19:43:47;14.00;96.10
4509;DHT22;2267;48.816;9.230;2022-09-20T19:49:44;14.00;96.40
4509;DHT22;2267;48.816;9.230;2022-09-20T19:52:13;14.00;96.40
4509;DHT22;2267;48.816;9.230;2022-09-20T19:54:41;13.90;96.30
4509;DHT22;2267;48.816;9.230;2022-09-20T19:57:20;13.80;96.30
4509;DHT22;2267;48.816;9.230;2022-09-20T19:59:49;13.80;96.30
4509;DHT22;2267;48.816;9.230;2022-09-20T20:02:17;13.80;96.30
4509;DHT22;2267;48.816;9.230;2022-09-20T20:04:44;13.70;96.50
4509;DHT22;2267;48.816;9.230;2022-09-20T20:07:35;13.70;96.70
4509;DHT22;2267;48.816;9.230;2022-09-20T20:10:17;13.70;97.00
4509;DHT22;2267;48.816;9.230;2022-09-20T20:16:13;13.60;97.20
4509;DHT22;2267;48.816;9.230;2022-09-20T20:18:49;13.60;97.30
4509;DHT22;2267;48.816;9.230;2022-09-20T20:21:32;13.60;97.40
4509;DHT22;2267;48.816;9.230;2022-09-20T20:24:35;13.60;97.50
4509;DHT22;2267;48.816;9.230;2022-09-20T20:27:03;13.60;97.60
4509;DHT22;2267;48.816;9.230;2022-09-20T20:29:30;13.50;97.50
4509;DHT22;2267;48.816;9.230;2022-09-20T20:31:56;13.50;97.60
4509;DHT22;2267;48.816;9.230;2022-09-20T20:34:24;13.50;97.70
4509;DHT22;2267;48.816;9.230;2022-09-20T20:36:52;13.50;97.70
4509;DHT22;2267;48.816;9.230;2022-09-20T20:39:29;13.40;97.70
4509;DHT22;2267;48.816;9.230;2022-09-20T20:41:58;13.40;97.80
4509;DHT22;2267;48.816;9.230;2022-09-20T20:44:29;13.40;97.70
4509;DHT22;2267;48.816;9.230;2022-09-20T20:46:55;13.30;97.70
4509;DHT22;2267;48.816;9.230;2022-09-20T20:49:22;13.30;97.80
4509;DHT22;2267;48.816;9.230;2022-09-20T20:51:50;13.30;97.80
4509;DHT22;2267;48.816;9.230;2022-09-20T20:54:17;13.30;97.90
4509;DHT22;2267;48.816;9.230;2022-09-20T20:56:43;13.20;98.40
4509;DHT22;2267;48.816;9.230;2022-09-20T20:59:10;13.20;98.20
4509;DHT22;2267;48.816;9.230;2022-09-20T21:01:38;13.20;98.30
4509;DHT22;2267;48.816;9.230;2022-09-20T21:04:11;13.20;98.30
4509;DHT22;2267;48.816;9.230;2022-09-20T21:06:39;13.20;98.40
4509;DHT22;2267;48.816;9.230;2022-09-20T21:09:09;13.20;98.40
4509;DHT22;2267;48.816;9.230;2022-09-20T21:11:38;13.20;98.50
4509;DHT22;2267;48.816;9.230;2022-09-20T21:14:06;13.10;98.40
4509;DHT22;2267;48.816;9.230;2022-09-20T21:16:38;13.10;98.50
4509;DHT22;2267;48.816;9.230;2022-09-20T21:19:09;13.10;98.60
4509;DHT22;2267;48.816;9.230;2022-09-20T21:21:40;13.10;98.70
4509;DHT22;2267;48.816;9.230;2022-09-20T21:24:12;13.10;98.70
4509;DHT22;2267;48.816;9.230;2022-09-20T21:26:41;13.00;98.60
4509;DHT22;2267;48.816;9.230;2022-09-20T21:29:13;13.10;98.60
4509;DHT22;2267;48.816;9.230;2022-09-20T21:31:44;13.00;98.60
4509;DHT22;2267;48.816;9.230;2022-09-20T21:34:13;13.00;98.70
4509;DHT22;2267;48.816;9.230;2022-09-20T21:36:41;12.90;98.70
4509;DHT22;2267;48.816;9.230;2022-09-20T21:39:09;12.90;98.70
4509;DHT22;2267;48.816;9.230;2022-09-20T21:41:37;12.90;98.70
4509;DHT22;2267;48.816;9.230;2022-09-20T21:44:05;12.90;98.80
4509;DHT22;2267;48.816;9.230;2022-09-20T21:46:37;12.90;98.80
4509;DHT22;2267;48.816;9.230;2022-09-20T21:49:07;12.80;98.80
4509;DHT22;2267;48.816;9.230;2022-09-20T21:51:35;12.80;98.90
4509;DHT22;2267;48.816;9.230;2022-09-20T21:54:04;12.80;98.90
4509;DHT22;2267;48.816;9.230;2022-09-20T21:56:33;12.80;98.90
4509;DHT22;2267;48.816;9.230;2022-09-20T21:59:01;12.70;98.90
4509;DHT22;2267;48.816;9.230;2022-09-20T22:01:31;12.70;98.90
4509;DHT22;2267;48.816;9.230;2022-09-20T22:04:09;12.70;98.90
4509;DHT22;2267;48.816;9.230;2022-09-20T22:06:41;12.70;98.90
4509;DHT22;2267;48.816;9.230;2022-09-20T22:09:13;12.60;98.90
4509;DHT22;2267;48.816;9.230;2022-09-20T22:11:43;12.60;99.00
4509;DHT22;2267;48.816;9.230;2022-09-20T22:14:11;12.60;99.20
4509;DHT22;2267;48.816;9.230;2022-09-20T22:16:40;12.50;99.00